sensor_id;sensor_type;location;lat;lon;timestamp;P1;durP1;ratioP1;P2;durP2;ratioP2
43883;SDS011;29544;52.018;5.810;2023-02-28T00:00:08;3.50;;;1.57;;
43883;SDS011;29544;52.018;5.810;2023-02-28T00:02:36;4.13;;;2.05;;
43883;SDS011;29544;52.018;5.810;2023-02-28T00:05:06;6.50;;;1.85;;
43883;SDS011;29544;52.018;5.810;2023-02-28T00:09:58;3.58;;;1.73;;
43883;SDS011;29544;52.018;5.810;2023-02-28T00:12:24;8.07;;;2.25;;
43883;SDS011;29544;52.018;5.810;2023-02-28T00:14:50;4.50;;;1.60;;
43883;SDS011;29544;52.018;5.810;2023-02-28T00:17:16;5.47;;;1.77;;
43883;SDS011;29544;52.018;5.810;2023-02-28T00:19:45;7.60;;;1.95;;
43883;SDS011;29544;52.018;5.810;2023-02-28T00:22:19;4.00;;;1.90;;
43883;SDS011;29544;52.018;5.810;2023-02-28T00:24:45;6.93;;;2.05;;
43883;SDS011;29544;52.018;5.810;2023-02-28T00:27:11;3.75;;;1.58;;
43883;SDS011;29544;52.018;5.810;2023-02-28T00:29:37;5.30;;;1.48;;
43883;SDS011;29544;52.018;5.810;2023-02-28T00:32:04;2.83;;;1.37;;
43883;SDS011;29544;52.018;5.810;2023-02-28T00:36:55;4.00;;;1.70;;
43883;SDS011;29544;52.018;5.810;2023-02-28T00:39:21;3.63;;;1.60;;
43883;SDS011;29544;52.018;5.810;2023-02-28T00:41:47;5.30;;;1.70;;
43883;SDS011;29544;52.018;5.810;2023-02-28T00:44:12;2.97;;;1.67;;
43883;SDS011;29544;52.018;5.810;2023-02-28T00:46:38;4.47;;;1.50;;
43883;SDS011;29544;52.018;5.810;2023-02-28T00:49:03;4.43;;;1.70;;
43883;SDS011;29544;52.018;5.810;2023-02-28T00:51:29;3.27;;;1.53;;
43883;SDS011;29544;52.018;5.810;2023-02-28T00:53:54;5.47;;;1.50;;
43883;SDS011;29544;52.018;5.810;2023-02-28T00:56:20;2.97;;;1.20;;
43883;SDS011;29544;52.018;5.810;2023-02-28T00:58:45;3.63;;;1.60;;
43883;SDS011;29544;52.018;5.810;2023-02-28T01:01:11;6.37;;;2.40;;
43883;SDS011;29544;52.018;5.810;2023-02-28T01:03:36;4.83;;;1.93;;
43883;SDS011;29544;52.018;5.810;2023-02-28T01:06:03;3.70;;;1.67;;
43883;SDS011;29544;52.018;5.810;2023-02-28T01:08:29;2.90;;;1.45;;
43883;SDS011;29544;52.018;5.810;2023-02-28T01:10:55;5.37;;;1.50;;
43883;SDS011;29544;52.018;5.810;2023-02-28T01:13:20;3.53;;;1.57;;
43883;SDS011;29544;52.018;5.810;2023-02-28T01:15:51;2.53;;;1.38;;
43883;SDS011;29544;52.018;5.810;2023-02-28T01:18:19;4.05;;;1.38;;
43883;SDS011;29544;52.018;5.810;2023-02-28T01:20:45;6.07;;;1.35;;
43883;SDS011;29544;52.018;5.810;2023-02-28T01:23:11;3.80;;;1.70;;
43883;SDS011;29544;52.018;5.810;2023-02-28T01:25:36;3.87;;;1.30;;
43883;SDS011;29544;52.018;5.810;2023-02-28T01:28:02;2.60;;;1.48;;
43883;SDS011;29544;52.018;5.810;2023-02-28T01:30:28;2.13;;;1.20;;
43883;SDS011;29544;52.018;5.810;2023-02-28T01:32:54;3.13;;;1.50;;
43883;SDS011;29544;52.018;5.810;2023-02-28T01:35:19;2.10;;;1.30;;
43883;SDS011;29544;52.018;5.810;2023-02-28T01:37:45;3.27;;;1.40;;
43883;SDS011;29544;52.018;5.810;2023-02-28T01:40:11;4.37;;;1.60;;
43883;SDS011;29544;52.018;5.810;2023-02-28T01:42:37;3.15;;;1.38;;
43883;SDS011;29544;52.018;5.810;2023-02-28T01:48:07;3.33;;;1.30;;
43883;SDS011;29544;52.018;5.810;2023-02-28T01:50:36;2.28;;;1.27;;
43883;SDS011;29544;52.018;5.810;2023-02-28T01:53:07;2.50;;;1.23;;
43883;SDS011;29544;52.018;5.810;2023-02-28T01:55:37;2.63;;;1.40;;
43883;SDS011;29544;52.018;5.810;2023-02-28T01:58:04;3.42;;;1.27;;
43883;SDS011;29544;52.018;5.810;2023-02-28T02:00:31;3.95;;;1.40;;
43883;SDS011;29544;52.018;5.810;2023-02-28T02:02:58;1.85;;;1.25;;
43883;SDS011;29544;52.018;5.810;2023-02-28T02:05:27;1.90;;;1.33;;
43883;SDS011;29544;52.018;5.810;2023-02-28T02:07:56;2.17;;;1.40;;
43883;SDS011;29544;52.018;5.810;2023-02-28T02:10:31;2.95;;;1.40;;
43883;SDS011;29544;52.018;5.810;2023-02-28T02:17:55;2.83;;;1.40;;
43883;SDS011;29544;52.018;5.810;2023-02-28T02:23:28;2.22;;;1.25;;
43883;SDS011;29544;52.018;5.810;2023-02-28T02:26:29;3.45;;;1.40;;
43883;SDS011;29544;52.018;5.810;2023-02-28T02:32:08;2.67;;;1.40;;
43883;SDS011;29544;52.018;5.810;2023-02-28T02:37:24;2.78;;;1.42;;
43883;SDS011;29544;52.018;5.810;2023-02-28T02:42:51;2.90;;;1.67;;
43883;SDS011;29544;52.018;5.810;2023-02-28T02:47:53;2.58;;;1.55;;
43883;SDS011;29544;52.018;5.810;2023-02-28T02:50:27;2.40;;;1.40;;
43883;SDS011;29544;52.018;5.810;2023-02-28T02:52:58;1.88;;;1.15;;
43883;SDS011;29544;52.018;5.810;2023-02-28T02:55:27;3.05;;;1.70;;
43883;SDS011;29544;52.018;5.810;2023-02-28T02:57:56;2.58;;;1.27;;
43883;SDS011;29544;52.018;5.810;2023-02-28T03:00:26;3.15;;;1.65;;
43883;SDS011;29544;52.018;5.810;2023-02-28T03:02:58;1.90;;;1.20;;
43883;SDS011;29544;52.018;5.810;2023-02-28T03:05:26;3.10;;;1.60;;
43883;SDS011;29544;52.018;5.810;2023-02-28T03:08:02;2.95;;;2.00;;
43883;SDS011;29544;52.018;5.810;2023-02-28T03:10:31;2.28;;;1.60;;
43883;SDS011;29544;52.018;5.810;2023-02-28T03:13:34;2.10;;;1.42;;
43883;SDS011;29544;52.018;5.810;2023-02-28T03:16:17;2.53;;;1.52;;
43883;SDS011;29544;52.018;5.810;2023-02-28T03:30:08;2.60;;;1.63;;
43883;SDS011;29544;52.018;5.810;2023-02-28T03:32:45;2.40;;;1.65;;
43883;SDS011;29544;52.018;5.810;2023-02-28T03:35:23;2.85;;;1.55;;
43883;SDS011;29544;52.018;5.810;2023-02-28T03:37:54;2.05;;;1.60;;
43883;SDS011;29544;52.018;5.810;2023-02-28T03:40:27;3.30;;;1.52;;
43883;SDS011;29544;52.018;5.810;2023-02-28T03:42:59;2.85;;;1.67;;
43883;SDS011;29544;52.018;5.810;2023-02-28T03:45:28;2.78;;;1.33;;
43883;SDS011;29544;52.018;5.810;2023-02-28T03:48:18;2.85;;;1.60;;
43883;SDS011;29544;52.018;5.810;2023-02-28T03:53:42;2.50;;;1.48;;
43883;SDS011;29544;52.018;5.810;2023-02-28T03:56:20;3.90;;;1.77;;
43883;SDS011;29544;52.018;5.810;2023-02-28T04:04:07;2.35;;;1.67;;
43883;SDS011;29544;52.018;5.810;2023-02-28T04:06:34;2.88;;;1.80;;
43883;SDS011;29544;52.018;5.810;2023-02-28T04:09:00;2.22;;;1.45;;
43883;SDS011;29544;52.018;5.810;2023-02-28T04:14:02;3.20;;;1.63;;
43883;SDS011;29544;52.018;5.810;2023-02-28T04:16:30;2.35;;;1.42;;
43883;SDS011;29544;52.018;5.810;2023-02-28T04:18:56;2.03;;;1.48;;
43883;SDS011;29544;52.018;5.810;2023-02-28T04:21:30;2.25;;;1.65;;
43883;SDS011;29544;52.018;5.810;2023-02-28T04:23:57;2.05;;;1.20;;
43883;SDS011;29544;52.018;5.810;2023-02-28T04:26:35;2.90;;;1.50;;
43883;SDS011;29544;52.018;5.810;2023-02-28T04:29:05;2.45;;;1.08;;
43883;SDS011;29544;52.018;5.810;2023-02-28T04:31:32;2.50;;;1.55;;
43883;SDS011;29544;52.018;5.810;2023-02-28T04:33:58;2.80;;;1.63;;
43883;SDS011;29544;52.018;5.810;2023-02-28T04:36:24;1.98;;;1.25;;
43883;SDS011;29544;52.018;5.810;2023-02-28T04:38:50;2.10;;;1.10;;
43883;SDS011;29544;52.018;5.810;2023-02-28T04:41:16;1.83;;;1.27;;
43883;SDS011;29544;52.018;5.810;2023-02-28T04:43:42;1.88;;;1.25;;
43883;SDS011;29544;52.018;5.810;2023-02-28T04:46:08;1.90;;;1.13;;
43883;SDS011;29544;52.018;5.810;2023-02-28T04:48:35;1.63;;;1.20;;
43883;SDS011;29544;52.018;5.810;2023-02-28T04:51:03;1.77;;;1.17;;
43883;SDS011;29544;52.018;5.810;2023-02-28T04:53:30;1.88;;;1.20;;
43883;SDS011;29544;52.018;5.810;2023-02-28T04:55:56;1.90;;;1.30;;
43883;SDS011;29544;52.018;5.810;2023-02-28T04:58:22;2.35;;;1.20;;
43883;SDS011;29544;52.018;5.810;2023-02-28T05:00:48;1.80;;;1.20;;
43883;SDS011;29544;52.018;5.810;2023-02-28T05:03:14;3.35;;;1.45;;
43883;SDS011;29544;52.018;5.810;2023-02-28T05:05:40;1.83;;;1.30;;
43883;SDS011;29544;52.018;5.810;2023-02-28T05:08:05;1.90;;;1.00;;
43883;SDS011;29544;52.018;5.810;2023-02-28T05:10:31;3.30;;;1.40;;
43883;SDS011;29544;52.018;5.810;2023-02-28T05:12:57;1.83;;;1.33;;
43883;SDS011;29544;52.018;5.810;2023-02-28T05:15:23;2.03;;;1.10;;
43883;SDS011;29544;52.018;5.810;2023-02-28T05:17:49;1.88;;;1.02;;
43883;SDS011;29544;52.018;5.810;2023-02-28T05:20:15;2.77;;;1.40;;
43883;SDS011;29544;52.018;5.810;2023-02-28T05:22:41;2.27;;;1.33;;
43883;SDS011;29544;52.018;5.810;2023-02-28T05:25:08;1.35;;;0.90;;
43883;SDS011;29544;52.018;5.810;2023-02-28T05:27:38;1.23;;;0.90;;
43883;SDS011;29544;52.018;5.810;2023-02-28T05:30:04;2.60;;;1.20;;
43883;SDS011;29544;52.018;5.810;2023-02-28T05:32:31;1.75;;;0.98;;
43883;SDS011;29544;52.018;5.810;2023-02-28T05:34:56;1.73;;;1.10;;
43883;SDS011;29544;52.018;5.810;2023-02-28T05:37:22;1.20;;;0.90;;
43883;SDS011;29544;52.018;5.810;2023-02-28T05:39:47;2.40;;;1.23;;
43883;SDS011;29544;52.018;5.810;2023-02-28T05:42:13;2.27;;;1.20;;
43883;SDS011;29544;52.018;5.810;2023-02-28T05:44:38;1.87;;;1.30;;
43883;SDS011;29544;52.018;5.810;2023-02-28T05:47:04;2.83;;;1.20;;
43883;SDS011;29544;52.018;5.810;2023-02-28T05:49:29;2.03;;;1.30;;
43883;SDS011;29544;52.018;5.810;2023-02-28T05:51:55;1.60;;;1.00;;
43883;SDS011;29544;52.018;5.810;2023-02-28T05:54:20;1.33;;;0.90;;
43883;SDS011;29544;52.018;5.810;2023-02-28T05:56:46;1.30;;;1.10;;
43883;SDS011;29544;52.018;5.810;2023-02-28T05:59:12;1.33;;;1.07;;
43883;SDS011;29544;52.018;5.810;2023-02-28T06:01:38;1.52;;;1.15;;
43883;SDS011;29544;52.018;5.810;2023-02-28T06:04:07;1.77;;;1.00;;
43883;SDS011;29544;52.018;5.810;2023-02-28T06:06:34;2.63;;;1.23;;
43883;SDS011;29544;52.018;5.810;2023-02-28T06:11:26;1.75;;;1.00;;
43883;SDS011;29544;52.018;5.810;2023-02-28T06:13:53;2.00;;;1.00;;
43883;SDS011;29544;52.018;5.810;2023-02-28T06:16:20;1.40;;;1.00;;
43883;SDS011;29544;52.018;5.810;2023-02-28T06:18:46;1.27;;;0.97;;
43883;SDS011;29544;52.018;5.810;2023-02-28T06:21:12;1.33;;;1.00;;
43883;SDS011;29544;52.018;5.810;2023-02-28T06:23:38;1.70;;;1.33;;
43883;SDS011;29544;52.018;5.810;2023-02-28T06:26:04;2.60;;;0.93;;
43883;SDS011;29544;52.018;5.810;2023-02-28T06:28:29;2.10;;;1.00;;
43883;SDS011;29544;52.018;5.810;2023-02-28T06:30:55;1.90;;;1.20;;
43883;SDS011;29544;52.018;5.810;2023-02-28T06:33:20;1.70;;;1.00;;
43883;SDS011;29544;52.018;5.810;2023-02-28T06:35:47;2.73;;;1.17;;
43883;SDS011;29544;52.018;5.810;2023-02-28T06:38:15;1.70;;;1.00;;
43883;SDS011;29544;52.018;5.810;2023-02-28T06:40:40;1.17;;;0.90;;
43883;SDS011;29544;52.018;5.810;2023-02-28T06:43:06;1.87;;;0.93;;
43883;SDS011;29544;52.018;5.810;2023-02-28T06:45:32;2.23;;;1.23;;
43883;SDS011;29544;52.018;5.810;2023-02-28T06:47:57;1.27;;;0.80;;
43883;SDS011;29544;52.018;5.810;2023-02-28T06:50:25;1.48;;;1.05;;
43883;SDS011;29544;52.018;5.810;2023-02-28T06:52:52;2.60;;;0.98;;
43883;SDS011;29544;52.018;5.810;2023-02-28T06:57:44;1.08;;;0.90;;
43883;SDS011;29544;52.018;5.810;2023-02-28T07:00:10;2.03;;;1.03;;
43883;SDS011;29544;52.018;5.810;2023-02-28T07:02:36;3.50;;;1.48;;
43883;SDS011;29544;52.018;5.810;2023-02-28T07:05:03;0.97;;;0.73;;
43883;SDS011;29544;52.018;5.810;2023-02-28T07:07:29;1.80;;;1.23;;
43883;SDS011;29544;52.018;5.810;2023-02-28T07:09:55;1.70;;;1.07;;
43883;SDS011;29544;52.018;5.810;2023-02-28T07:12:21;0.82;;;0.65;;
43883;SDS011;29544;52.018;5.810;2023-02-28T07:14:47;1.23;;;0.93;;
43883;SDS011;29544;52.018;5.810;2023-02-28T07:17:12;1.17;;;0.80;;
43883;SDS011;29544;52.018;5.810;2023-02-28T07:19:38;1.40;;;0.80;;
43883;SDS011;29544;52.018;5.810;2023-02-28T07:22:04;1.50;;;1.10;;
43883;SDS011;29544;52.018;5.810;2023-02-28T07:24:30;2.53;;;0.93;;
43883;SDS011;29544;52.018;5.810;2023-02-28T07:26:56;1.53;;;1.10;;
43883;SDS011;29544;52.018;5.810;2023-02-28T07:29:22;1.58;;;0.75;;
43883;SDS011;29544;52.018;5.810;2023-02-28T07:31:47;1.53;;;0.90;;
43883;SDS011;29544;52.018;5.810;2023-02-28T07:34:15;1.95;;;1.00;;
43883;SDS011;29544;52.018;5.810;2023-02-28T07:36:40;2.40;;;1.00;;
43883;SDS011;29544;52.018;5.810;2023-02-28T07:39:06;1.03;;;0.73;;
43883;SDS011;29544;52.018;5.810;2023-02-28T07:41:34;1.85;;;1.20;;
43883;SDS011;29544;52.018;5.810;2023-02-28T07:44:04;1.08;;;0.88;;
43883;SDS011;29544;52.018;5.810;2023-02-28T07:46:29;2.60;;;1.00;;
43883;SDS011;29544;52.018;5.810;2023-02-28T07:49:00;1.48;;;0.93;;
43883;SDS011;29544;52.018;5.810;2023-02-28T07:51:27;1.48;;;0.85;;
43883;SDS011;29544;52.018;5.810;2023-02-28T07:53:54;1.35;;;0.95;;
43883;SDS011;29544;52.018;5.810;2023-02-28T07:56:19;2.00;;;1.00;;
43883;SDS011;29544;52.018;5.810;2023-02-28T07:58:45;1.90;;;0.93;;
43883;SDS011;29544;52.018;5.810;2023-02-28T08:01:11;1.93;;;1.10;;
43883;SDS011;29544;52.018;5.810;2023-02-28T08:03:37;3.08;;;0.98;;
43883;SDS011;29544;52.018;5.810;2023-02-28T08:06:03;3.85;;;0.80;;
43883;SDS011;29544;52.018;5.810;2023-02-28T08:08:30;4.38;;;1.00;;
43883;SDS011;29544;52.018;5.810;2023-02-28T08:10:59;2.27;;;1.20;;
43883;SDS011;29544;52.018;5.810;2023-02-28T08:13:26;3.38;;;1.10;;
43883;SDS011;29544;52.018;5.810;2023-02-28T08:18:19;2.15;;;1.00;;
43883;SDS011;29544;52.018;5.810;2023-02-28T08:20:45;1.80;;;0.80;;
43883;SDS011;29544;52.018;5.810;2023-02-28T08:23:10;3.30;;;1.20;;
43883;SDS011;29544;52.018;5.810;2023-02-28T08:25:36;2.93;;;0.80;;
43883;SDS011;29544;52.018;5.810;2023-02-28T08:28:01;0.70;;;0.50;;
43883;SDS011;29544;52.018;5.810;2023-02-28T08:30:27;1.83;;;1.10;;
43883;SDS011;29544;52.018;5.810;2023-02-28T08:32:53;2.70;;;0.93;;
43883;SDS011;29544;52.018;5.810;2023-02-28T08:35:19;5.13;;;1.25;;
43883;SDS011;29544;52.018;5.810;2023-02-28T08:37:47;4.10;;;0.90;;
43883;SDS011;29544;52.018;5.810;2023-02-28T08:40:13;3.38;;;1.10;;
43883;SDS011;29544;52.018;5.810;2023-02-28T08:42:43;1.77;;;1.00;;
43883;SDS011;29544;52.018;5.810;2023-02-28T08:45:12;2.17;;;0.90;;
43883;SDS011;29544;52.018;5.810;2023-02-28T08:47:39;2.47;;;0.70;;
43883;SDS011;29544;52.018;5.810;2023-02-28T08:50:05;1.73;;;0.70;;
43883;SDS011;29544;52.018;5.810;2023-02-28T08:52:31;1.33;;;0.75;;
43883;SDS011;29544;52.018;5.810;2023-02-28T08:54:57;1.67;;;0.97;;
43883;SDS011;29544;52.018;5.810;2023-02-28T08:57:23;2.13;;;0.90;;
43883;SDS011;29544;52.018;5.810;2023-02-28T08:59:51;2.55;;;0.90;;
43883;SDS011;29544;52.018;5.810;2023-02-28T09:02:16;1.17;;;0.80;;
43883;SDS011;29544;52.018;5.810;2023-02-28T09:04:42;1.93;;;1.00;;
43883;SDS011;29544;52.018;5.810;2023-02-28T09:07:10;1.38;;;0.80;;
43883;SDS011;29544;52.018;5.810;2023-02-28T09:09:35;1.90;;;0.90;;
43883;SDS011;29544;52.018;5.810;2023-02-28T09:12:01;1.87;;;0.80;;
43883;SDS011;29544;52.018;5.810;2023-02-28T09:14:27;3.67;;;1.73;;
43883;SDS011;29544;52.018;5.810;2023-02-28T09:16:53;1.65;;;0.90;;
43883;SDS011;29544;52.018;5.810;2023-02-28T09:19:19;0.82;;;0.60;;
43883;SDS011;29544;52.018;5.810;2023-02-28T09:21:45;1.83;;;0.90;;
43883;SDS011;29544;52.018;5.810;2023-02-28T09:24:10;3.37;;;0.90;;
43883;SDS011;29544;52.018;5.810;2023-02-28T09:26:39;0.82;;;0.68;;
43883;SDS011;29544;52.018;5.810;2023-02-28T09:29:05;1.90;;;0.70;;
43883;SDS011;29544;52.018;5.810;2023-02-28T09:31:31;1.73;;;0.68;;
43883;SDS011;29544;52.018;5.810;2023-02-28T09:33:57;1.13;;;0.90;;
43883;SDS011;29544;52.018;5.810;2023-02-28T09:38:50;2.35;;;0.80;;
43883;SDS011;29544;52.018;5.810;2023-02-28T09:41:21;0.95;;;0.70;;
43883;SDS011;29544;52.018;5.810;2023-02-28T09:43:52;1.98;;;0.70;;
43883;SDS011;29544;52.018;5.810;2023-02-28T09:46:25;1.15;;;0.75;;
43883;SDS011;29544;52.018;5.810;2023-02-28T09:48:57;2.00;;;0.98;;
43883;SDS011;29544;52.018;5.810;2023-02-28T09:51:28;1.92;;;0.80;;
43883;SDS011;29544;52.018;5.810;2023-02-28T09:54:01;2.80;;;1.10;;
43883;SDS011;29544;52.018;5.810;2023-02-28T09:56:31;3.03;;;0.80;;
43883;SDS011;29544;52.018;5.810;2023-02-28T09:59:02;5.45;;;1.20;;
43883;SDS011;29544;52.018;5.810;2023-02-28T10:02:04;1.38;;;0.75;;
43883;SDS011;29544;52.018;5.810;2023-02-28T10:04:51;2.22;;;0.95;;
43883;SDS011;29544;52.018;5.810;2023-02-28T10:09:59;2.70;;;0.93;;
43883;SDS011;29544;52.018;5.810;2023-02-28T10:12:27;3.35;;;0.95;;
43883;SDS011;29544;52.018;5.810;2023-02-28T10:14:56;0.85;;;0.60;;
43883;SDS011;29544;52.018;5.810;2023-02-28T10:17:36;1.10;;;0.60;;
43883;SDS011;29544;52.018;5.810;2023-02-28T10:20:12;0.88;;;0.65;;
43883;SDS011;29544;52.018;5.810;2023-02-28T10:25:27;2.35;;;0.60;;
43883;SDS011;29544;52.018;5.810;2023-02-28T10:27:54;1.73;;;0.70;;
43883;SDS011;29544;52.018;5.810;2023-02-28T10:30:25;1.10;;;0.70;;
43883;SDS011;29544;52.018;5.810;2023-02-28T10:32:52;1.50;;;0.73;;
43883;SDS011;29544;52.018;5.810;2023-02-28T10:35:23;1.55;;;1.00;;
43883;SDS011;29544;52.018;5.810;2023-02-28T10:37:51;3.13;;;0.73;;
43883;SDS011;29544;52.018;5.810;2023-02-28T10:42:58;1.10;;;0.90;;
43883;SDS011;29544;52.018;5.810;2023-02-28T10:45:34;1.95;;;0.90;;
43883;SDS011;29544;52.018;5.810;2023-02-28T10:50:44;0.93;;;0.80;;
43883;SDS011;29544;52.018;5.810;2023-02-28T10:55:59;2.78;;;0.77;;
43883;SDS011;29544;52.018;5.810;2023-02-28T10:58:34;1.10;;;0.82;;
43883;SDS011;29544;52.018;5.810;2023-02-28T11:01:10;1.42;;;0.90;;
43883;SDS011;29544;52.018;5.810;2023-02-28T11:03:39;2.70;;;0.80;;
43883;SDS011;29544;52.018;5.810;2023-02-28T11:06:05;3.03;;;0.90;;
43883;SDS011;29544;52.018;5.810;2023-02-28T11:08:33;2.85;;;0.68;;
43883;SDS011;29544;52.018;5.810;2023-02-28T11:11:01;3.67;;;0.87;;
43883;SDS011;29544;52.018;5.810;2023-02-28T11:13:34;3.03;;;1.00;;
43883;SDS011;29544;52.018;5.810;2023-02-28T11:16:04;2.42;;;0.80;;
43883;SDS011;29544;52.018;5.810;2023-02-28T11:18:40;2.25;;;0.88;;
43883;SDS011;29544;52.018;5.810;2023-02-28T11:21:07;1.08;;;0.60;;
43883;SDS011;29544;52.018;5.810;2023-02-28T11:23:35;1.00;;;0.70;;
43883;SDS011;29544;52.018;5.810;2023-02-28T11:26:05;4.05;;;0.70;;
43883;SDS011;29544;52.018;5.810;2023-02-28T11:28:39;1.85;;;0.90;;
43883;SDS011;29544;52.018;5.810;2023-02-28T11:38:51;1.42;;;0.70;;
43883;SDS011;29544;52.018;5.810;2023-02-28T11:44:05;1.25;;;0.73;;
43883;SDS011;29544;52.018;5.810;2023-02-28T11:46:42;2.80;;;0.68;;
43883;SDS011;29544;52.018;5.810;2023-02-28T11:52:02;1.52;;;0.73;;
43883;SDS011;29544;52.018;5.810;2023-02-28T11:57:56;1.60;;;0.77;;
43883;SDS011;29544;52.018;5.810;2023-02-28T12:03:27;1.88;;;0.50;;
43883;SDS011;29544;52.018;5.810;2023-02-28T12:08:56;2.83;;;0.70;;
43883;SDS011;29544;52.018;5.810;2023-02-28T12:17:19;2.65;;;0.80;;
43883;SDS011;29544;52.018;5.810;2023-02-28T12:28:49;2.20;;;0.60;;
43883;SDS011;29544;52.018;5.810;2023-02-28T12:31:41;0.90;;;0.55;;
43883;SDS011;29544;52.018;5.810;2023-02-28T12:34:19;2.55;;;0.80;;
43883;SDS011;29544;52.018;5.810;2023-02-28T12:36:48;3.17;;;0.90;;
43883;SDS011;29544;52.018;5.810;2023-02-28T12:39:18;2.40;;;0.75;;
43883;SDS011;29544;52.018;5.810;2023-02-28T12:41:50;2.47;;;0.80;;
43883;SDS011;29544;52.018;5.810;2023-02-28T12:47:15;1.73;;;0.50;;
43883;SDS011;29544;52.018;5.810;2023-02-28T12:49:48;1.20;;;0.93;;
43883;SDS011;29544;52.018;5.810;2023-02-28T12:52:18;1.27;;;0.70;;
43883;SDS011;29544;52.018;5.810;2023-02-28T12:54:55;1.17;;;0.63;;
43883;SDS011;29544;52.018;5.810;2023-02-28T12:57:42;1.25;;;0.50;;
43883;SDS011;29544;52.018;5.810;2023-02-28T13:00:20;1.75;;;0.60;;
43883;SDS011;29544;52.018;5.810;2023-02-28T13:06:08;2.05;;;0.80;;
43883;SDS011;29544;52.018;5.810;2023-02-28T13:08:59;3.55;;;0.70;;
43883;SDS011;29544;52.018;5.810;2023-02-28T13:14:05;1.08;;;0.70;;
43883;SDS011;29544;52.018;5.810;2023-02-28T13:16:56;1.17;;;0.77;;
43883;SDS011;29544;52.018;5.810;2023-02-28T13:19:32;1.25;;;0.60;;
43883;SDS011;29544;52.018;5.810;2023-02-28T13:21:59;1.02;;;0.63;;
43883;SDS011;29544;52.018;5.810;2023-02-28T13:24:49;1.52;;;0.70;;
43883;SDS011;29544;52.018;5.810;2023-02-28T13:27:38;0.95;;;0.50;;
43883;SDS011;29544;52.018;5.810;2023-02-28T13:36:07;1.17;;;0.65;;
43883;SDS011;29544;52.018;5.810;2023-02-28T13:38:54;0.70;;;0.60;;
43883;SDS011;29544;52.018;5.810;2023-02-28T13:44:05;1.20;;;0.68;;
43883;SDS011;29544;52.018;5.810;2023-02-28T13:46:35;1.15;;;0.65;;
43883;SDS011;29544;52.018;5.810;2023-02-28T14:00:23;3.13;;;0.80;;
43883;SDS011;29544;52.018;5.810;2023-02-28T14:06:22;1.35;;;0.70;;
43883;SDS011;29544;52.018;5.810;2023-02-28T14:11:37;1.00;;;0.55;;
43883;SDS011;29544;52.018;5.810;2023-02-28T14:14:05;1.27;;;0.68;;
43883;SDS011;29544;52.018;5.810;2023-02-28T14:16:45;1.02;;;0.80;;
43883;SDS011;29544;52.018;5.810;2023-02-28T14:19:17;2.10;;;0.70;;
43883;SDS011;29544;52.018;5.810;2023-02-28T14:21:53;1.48;;;0.85;;
43883;SDS011;29544;52.018;5.810;2023-02-28T14:24:35;1.42;;;0.77;;
43883;SDS011;29544;52.018;5.810;2023-02-28T14:27:24;1.83;;;0.80;;
43883;SDS011;29544;52.018;5.810;2023-02-28T14:33:05;1.33;;;0.85;;
43883;SDS011;29544;52.018;5.810;2023-02-28T14:38:27;1.50;;;0.50;;
43883;SDS011;29544;52.018;5.810;2023-02-28T14:40:56;1.23;;;0.60;;
43883;SDS011;29544;52.018;5.810;2023-02-28T14:43:25;0.65;;;0.50;;
43883;SDS011;29544;52.018;5.810;2023-02-28T14:45:55;0.73;;;0.57;;
43883;SDS011;29544;52.018;5.810;2023-02-28T14:48:23;0.85;;;0.70;;
43883;SDS011;29544;52.018;5.810;2023-02-28T14:50:51;0.68;;;0.63;;
43883;SDS011;29544;52.018;5.810;2023-02-28T14:53:20;0.73;;;0.73;;
43883;SDS011;29544;52.018;5.810;2023-02-28T14:55:48;0.82;;;0.63;;
43883;SDS011;29544;52.018;5.810;2023-02-28T14:58:21;0.90;;;0.60;;
43883;SDS011;29544;52.018;5.810;2023-02-28T15:00:49;1.45;;;0.88;;
43883;SDS011;29544;52.018;5.810;2023-02-28T15:06:05;1.35;;;0.63;;
43883;SDS011;29544;52.018;5.810;2023-02-28T15:08:38;0.93;;;0.60;;
43883;SDS011;29544;52.018;5.810;2023-02-28T15:11:04;1.07;;;0.93;;
43883;SDS011;29544;52.018;5.810;2023-02-28T15:13:42;2.08;;;0.70;;
43883;SDS011;29544;52.018;5.810;2023-02-28T15:21:21;1.25;;;0.90;;
43883;SDS011;29544;52.018;5.810;2023-02-28T15:26:30;1.20;;;0.70;;
43883;SDS011;29544;52.018;5.810;2023-02-28T15:29:11;1.40;;;0.80;;
43883;SDS011;29544;52.018;5.810;2023-02-28T15:31:45;0.70;;;0.60;;
43883;SDS011;29544;52.018;5.810;2023-02-28T15:37:06;0.90;;;0.50;;
43883;SDS011;29544;52.018;5.810;2023-02-28T15:39:51;0.93;;;0.63;;
43883;SDS011;29544;52.018;5.810;2023-02-28T15:42:18;0.70;;;0.70;;
43883;SDS011;29544;52.018;5.810;2023-02-28T15:44:45;2.45;;;0.70;;
43883;SDS011;29544;52.018;5.810;2023-02-28T15:49:45;0.70;;;0.50;;
43883;SDS011;29544;52.018;5.810;2023-02-28T15:52:16;1.25;;;0.60;;
43883;SDS011;29544;52.018;5.810;2023-02-28T15:55:08;1.77;;;0.82;;
43883;SDS011;29544;52.018;5.810;2023-02-28T15:57:37;1.48;;;0.98;;
43883;SDS011;29544;52.018;5.810;2023-02-28T16:00:05;0.95;;;0.65;;
43883;SDS011;29544;52.018;5.810;2023-02-28T16:02:37;1.17;;;0.75;;
43883;SDS011;29544;52.018;5.810;2023-02-28T16:07:35;1.15;;;0.68;;
43883;SDS011;29544;52.018;5.810;2023-02-28T16:10:03;1.20;;;0.80;;
43883;SDS011;29544;52.018;5.810;2023-02-28T16:14:57;1.15;;;0.75;;
43883;SDS011;29544;52.018;5.810;2023-02-28T16:17:26;1.45;;;0.80;;
43883;SDS011;29544;52.018;5.810;2023-02-28T16:19:54;1.10;;;0.70;;
43883;SDS011;29544;52.018;5.810;2023-02-28T16:22:20;1.13;;;0.70;;
43883;SDS011;29544;52.018;5.810;2023-02-28T16:24:46;0.70;;;0.70;;
43883;SDS011;29544;52.018;5.810;2023-02-28T16:29:43;1.20;;;0.75;;
43883;SDS011;29544;52.018;5.810;2023-02-28T16:34:37;0.70;;;0.52;;
43883;SDS011;29544;52.018;5.810;2023-02-28T16:37:04;0.87;;;0.60;;
43883;SDS011;29544;52.018;5.810;2023-02-28T16:39:35;1.05;;;0.70;;
43883;SDS011;29544;52.018;5.810;2023-02-28T16:42:00;1.00;;;0.60;;
43883;SDS011;29544;52.018;5.810;2023-02-28T16:44:30;1.03;;;0.60;;
43883;SDS011;29544;52.018;5.810;2023-02-28T16:47:01;2.72;;;0.60;;
43883;SDS011;29544;52.018;5.810;2023-02-28T16:49:29;1.30;;;0.70;;
43883;SDS011;29544;52.018;5.810;2023-02-28T16:51:55;0.80;;;0.60;;
43883;SDS011;29544;52.018;5.810;2023-02-28T16:54:20;1.70;;;0.80;;
43883;SDS011;29544;52.018;5.810;2023-02-28T16:56:46;1.70;;;0.67;;
43883;SDS011;29544;52.018;5.810;2023-02-28T16:59:13;0.60;;;0.50;;
43883;SDS011;29544;52.018;5.810;2023-02-28T17:01:43;1.10;;;0.63;;
43883;SDS011;29544;52.018;5.810;2023-02-28T17:04:09;1.50;;;0.60;;
43883;SDS011;29544;52.018;5.810;2023-02-28T17:06:36;0.73;;;0.50;;
43883;SDS011;29544;52.018;5.810;2023-02-28T17:09:01;0.60;;;0.60;;
43883;SDS011;29544;52.018;5.810;2023-02-28T17:11:27;2.77;;;1.23;;
43883;SDS011;29544;52.018;5.810;2023-02-28T17:13:53;1.20;;;0.90;;
43883;SDS011;29544;52.018;5.810;2023-02-28T17:16:25;1.77;;;0.80;;
43883;SDS011;29544;52.018;5.810;2023-02-28T17:18:54;1.65;;;0.85;;
43883;SDS011;29544;52.018;5.810;2023-02-28T17:21:22;1.13;;;0.73;;
43883;SDS011;29544;52.018;5.810;2023-02-28T17:23:47;1.00;;;0.50;;
43883;SDS011;29544;52.018;5.810;2023-02-28T17:26:13;1.93;;;0.70;;
43883;SDS011;29544;52.018;5.810;2023-02-28T17:28:42;1.25;;;0.60;;
43883;SDS011;29544;52.018;5.810;2023-02-28T17:31:08;2.38;;;0.50;;
43883;SDS011;29544;52.018;5.810;2023-02-28T17:33:34;1.70;;;0.80;;
43883;SDS011;29544;52.018;5.810;2023-02-28T17:36:00;1.65;;;0.63;;
43883;SDS011;29544;52.018;5.810;2023-02-28T17:38:26;0.70;;;0.60;;
43883;SDS011;29544;52.018;5.810;2023-02-28T17:40:52;0.87;;;0.33;;
43883;SDS011;29544;52.018;5.810;2023-02-28T17:43:21;1.50;;;0.68;;
43883;SDS011;29544;52.018;5.810;2023-02-28T17:45:48;1.75;;;0.50;;
43883;SDS011;29544;52.018;5.810;2023-02-28T17:48:13;0.60;;;0.40;;
43883;SDS011;29544;52.018;5.810;2023-02-28T17:50:39;1.53;;;0.77;;
43883;SDS011;29544;52.018;5.810;2023-02-28T17:53:05;0.82;;;0.60;;
43883;SDS011;29544;52.018;5.810;2023-02-28T17:55:31;1.33;;;0.70;;